sensor_id;sensor_type;location;lat;lon;timestamp;pressure;altitude;pressure_sealevel;temperature;humidity
72330;BME280;60660;52.076;5.110;2023-03-04T00:02:00;102812.89;;;0.05;43.84
72330;BME280;60660;52.076;5.110;2023-03-04T00:04:25;102809.53;;;-1.94;46.38
72330;BME280;60660;52.076;5.110;2023-03-04T00:06:50;102814.96;;;-2.72;48.81
72330;BME280;60660;52.076;5.110;2023-03-04T00:09:16;102808.43;;;-2.01;49.96
72330;BME280;60660;52.076;5.110;2023-03-04T00:11:41;102818.49;;;0.43;44.82
72330;BME280;60660;52.076;5.110;2023-03-04T00:14:07;102805.09;;;-3.54;48.78
72330;BME280;60660;52.076;5.110;2023-03-04T00:16:32;102809.29;;;-0.84;46.66
72330;BME280;60660;52.076;5.110;2023-03-04T00:18:58;102811.13;;;-0.98;46.79
72330;BME280;60660;52.076;5.110;2023-03-04T00:21:24;102810.98;;;-1.56;46.90
72330;BME280;60660;52.076;5.110;2023-03-04T00:23:49;102814.45;;;-0.49;44.85
72330;BME280;60660;52.076;5.110;2023-03-04T00:26:15;102814.82;;;-0.72;45.56
72330;BME280;60660;52.076;5.110;2023-03-04T00:28:40;102814.79;;;-1.14;45.94
72330;BME280;60660;52.076;5.110;2023-03-04T00:31:06;102810.66;;;-2.25;48.48
72330;BME280;60660;52.076;5.110;2023-03-04T00:33:31;102810.59;;;-2.18;48.20
72330;BME280;60660;52.076;5.110;2023-03-04T00:35:56;102809.62;;;-2.34;48.85
72330;BME280;60660;52.076;5.110;2023-03-04T00:38:21;102812.52;;;-2.16;49.00
72330;BME280;60660;52.076;5.110;2023-03-04T00:40:47;102812.28;;;-1.26;47.99
72330;BME280;60660;52.076;5.110;2023-03-04T00:43:12;102815.38;;;-1.39;47.57
72330;BME280;60660;52.076;5.110;2023-03-04T00:45:38;102815.25;;;-2.86;49.83
72330;BME280;60660;52.076;5.110;2023-03-04T00:48:04;102813.79;;;-2.26;48.95
72330;BME280;60660;52.076;5.110;2023-03-04T00:50:29;102814.13;;;-2.09;50.23
72330;BME280;60660;52.076;5.110;2023-03-04T00:52:54;102816.07;;;-3.13;53.27
72330;BME280;60660;52.076;5.110;2023-03-04T00:55:20;102819.86;;;0.45;45.71
72330;BME280;60660;52.076;5.110;2023-03-04T00:57:45;102819.54;;;-1.24;45.96
72330;BME280;60660;52.076;5.110;2023-03-04T01:00:12;102817.59;;;-1.15;45.46
72330;BME280;60660;52.076;5.110;2023-03-04T01:02:37;102818.27;;;1.30;41.73
72330;BME280;60660;52.076;5.110;2023-03-04T01:05:02;102814.45;;;-1.64;45.85
72330;BME280;60660;52.076;5.110;2023-03-04T01:07:27;102815.77;;;-2.50;48.58
72330;BME280;60660;52.076;5.110;2023-03-04T01:09:53;102814.60;;;-2.94;50.57
72330;BME280;60660;52.076;5.110;2023-03-04T01:12:19;102812.62;;;-2.02;49.04
72330;BME280;60660;52.076;5.110;2023-03-04T01:14:44;102815.26;;;-1.08;46.75
72330;BME280;60660;52.076;5.110;2023-03-04T01:17:10;102814.49;;;-2.58;51.70
72330;BME280;60660;52.076;5.110;2023-03-04T01:19:35;102810.53;;;-3.73;53.94
72330;BME280;60660;52.076;5.110;2023-03-04T01:22:01;102806.53;;;-2.36;48.74
72330;BME280;60660;52.076;5.110;2023-03-04T01:24:26;102812.65;;;-0.40;46.14
72330;BME280;60660;52.076;5.110;2023-03-04T01:26:52;102808.40;;;0.32;43.39
72330;BME280;60660;52.076;5.110;2023-03-04T01:29:17;102805.82;;;-0.24;42.44
72330;BME280;60660;52.076;5.110;2023-03-04T01:31:43;102804.14;;;-1.57;44.32
72330;BME280;60660;52.076;5.110;2023-03-04T01:34:08;102794.44;;;-1.93;47.58
72330;BME280;60660;52.076;5.110;2023-03-04T01:36:34;102791.81;;;-3.07;49.75
72330;BME280;60660;52.076;5.110;2023-03-04T01:39:00;102790.83;;;-2.89;49.37
72330;BME280;60660;52.076;5.110;2023-03-04T01:41:26;102787.22;;;-1.05;48.28
72330;BME280;60660;52.076;5.110;2023-03-04T01:43:50;102782.89;;;-1.98;47.96
72330;BME280;60660;52.076;5.110;2023-03-04T01:46:16;102782.12;;;-1.25;45.85
72330;BME280;60660;52.076;5.110;2023-03-04T01:48:42;102780.82;;;-0.67;44.13
72330;BME280;60660;52.076;5.110;2023-03-04T01:51:11;102777.73;;;-1.85;46.60
72330;BME280;60660;52.076;5.110;2023-03-04T01:53:33;102774.26;;;-3.02;51.21
72330;BME280;60660;52.076;5.110;2023-03-04T01:56:01;102770.31;;;-2.27;51.49
72330;BME280;60660;52.076;5.110;2023-03-04T01:58:27;102768.43;;;-2.09;49.73
72330;BME280;60660;52.076;5.110;2023-03-04T02:00:49;102774.24;;;-0.43;45.97
72330;BME280;60660;52.076;5.110;2023-03-04T02:03:17;102747.23;;;-1.92;48.18
72330;BME280;60660;52.076;5.110;2023-03-04T02:05:43;102761.28;;;-2.39;51.57
72330;BME280;60660;52.076;5.110;2023-03-04T02:08:07;102759.89;;;-3.18;54.71
72330;BME280;60660;52.076;5.110;2023-03-04T02:10:31;102757.83;;;-2.26;49.66
72330;BME280;60660;52.076;5.110;2023-03-04T02:12:57;102756.19;;;-0.94;45.54
72330;BME280;60660;52.076;5.110;2023-03-04T02:15:22;102750.17;;;-1.45;45.82
72330;BME280;60660;52.076;5.110;2023-03-04T02:17:48;102749.77;;;-3.65;51.58
72330;BME280;60660;52.076;5.110;2023-03-04T02:20:22;102744.49;;;-1.90;48.70
72330;BME280;60660;52.076;5.110;2023-03-04T02:22:44;102740.89;;;-3.30;50.60
72330;BME280;60660;52.076;5.110;2023-03-04T02:25:08;102739.01;;;-2.55;50.94
72330;BME280;60660;52.076;5.110;2023-03-04T02:27:30;102739.49;;;-3.09;50.57
72330;BME280;60660;52.076;5.110;2023-03-04T02:29:55;102735.20;;;-1.70;48.14
72330;BME280;60660;52.076;5.110;2023-03-04T02:32:21;102732.13;;;-3.63;51.93
72330;BME280;60660;52.076;5.110;2023-03-04T02:34:48;102735.49;;;-3.46;51.86
72330;BME280;60660;52.076;5.110;2023-03-04T02:37:13;102733.27;;;-2.59;50.93
72330;BME280;60660;52.076;5.110;2023-03-04T02:39:40;102727.09;;;-3.92;52.57
72330;BME280;60660;52.076;5.110;2023-03-04T02:42:03;102727.43;;;-3.12;50.83
72330;BME280;60660;52.076;5.110;2023-03-04T02:44:31;102725.78;;;-3.29;50.53
72330;BME280;60660;52.076;5.110;2023-03-04T02:46:55;102718.68;;;-3.48;51.16
72330;BME280;60660;52.076;5.110;2023-03-04T02:49:21;102719.64;;;-4.48;54.03
72330;BME280;60660;52.076;5.110;2023-03-04T02:51:48;102718.61;;;-3.75;53.78
72330;BME280;60660;52.076;5.110;2023-03-04T02:54:14;102717.64;;;-4.11;54.73
72330;BME280;60660;52.076;5.110;2023-03-04T02:56:37;102714.01;;;-2.64;51.29
72330;BME280;60660;52.076;5.110;2023-03-04T02:59:02;102720.39;;;-1.91;49.46
72330;BME280;60660;52.076;5.110;2023-03-04T03:01:28;102717.24;;;-3.15;49.15
72330;BME280;60660;52.076;5.110;2023-03-04T03:03:54;102719.31;;;-1.12;46.18
72330;BME280;60660;52.076;5.110;2023-03-04T03:06:19;102721.59;;;-1.16;45.55
72330;BME280;60660;52.076;5.110;2023-03-04T03:08:45;102713.07;;;-4.45;49.47
72330;BME280;60660;52.076;5.110;2023-03-04T03:11:10;102711.95;;;-1.19;47.04
72330;BME280;60660;52.076;5.110;2023-03-04T03:13:35;102706.52;;;-2.53;46.74
72330;BME280;60660;52.076;5.110;2023-03-04T03:16:01;102707.38;;;-3.68;50.53
72330;BME280;60660;52.076;5.110;2023-03-04T03:18:26;102703.35;;;-3.39;53.69
72330;BME280;60660;52.076;5.110;2023-03-04T03:20:52;102706.72;;;-3.01;51.22
72330;BME280;60660;52.076;5.110;2023-03-04T03:23:17;102705.47;;;-1.53;47.07
72330;BME280;60660;52.076;5.110;2023-03-04T03:25:43;102703.30;;;-2.12;46.75
72330;BME280;60660;52.076;5.110;2023-03-04T03:28:08;102702.68;;;-2.09;46.12
72330;BME280;60660;52.076;5.110;2023-03-04T03:30:34;102700.28;;;1.81;40.88
72330;BME280;60660;52.076;5.110;2023-03-04T03:33:00;102701.41;;;-2.07;45.07
72330;BME280;60660;52.076;5.110;2023-03-04T03:35:25;102697.79;;;1.07;40.77
72330;BME280;60660;52.076;5.110;2023-03-04T03:37:51;102698.99;;;3.34;37.47
72330;BME280;60660;52.076;5.110;2023-03-04T03:40:16;102698.49;;;0.38;39.54
72330;BME280;60660;52.076;5.110;2023-03-04T03:42:42;102700.84;;;-1.33;42.81
72330;BME280;60660;52.076;5.110;2023-03-04T03:45:08;102697.10;;;-0.55;42.55
72330;BME280;60660;52.076;5.110;2023-03-04T03:47:33;102694.93;;;2.38;37.91
72330;BME280;60660;52.076;5.110;2023-03-04T03:49:58;102691.95;;;0.58;38.50
72330;BME280;60660;52.076;5.110;2023-03-04T03:52:24;102696.07;;;0.86;40.13
72330;BME280;60660;52.076;5.110;2023-03-04T03:54:49;102698.08;;;-1.82;44.84
72330;BME280;60660;52.076;5.110;2023-03-04T03:57:15;102697.74;;;0.18;42.76
72330;BME280;60660;52.076;5.110;2023-03-04T03:59:40;102698.58;;;-1.61;45.63
72330;BME280;60660;52.076;5.110;2023-03-04T04:02:06;102698.46;;;0.08;44.18
72330;BME280;60660;52.076;5.110;2023-03-04T04:04:31;102698.98;;;-1.75;46.21
72330;BME280;60660;52.076;5.110;2023-03-04T04:06:57;102698.13;;;-3.00;50.77
72330;BME280;60660;52.076;5.110;2023-03-04T04:09:22;102701.63;;;-2.58;51.95
72330;BME280;60660;52.076;5.110;2023-03-04T04:11:48;102707.71;;;-3.12;51.45
72330;BME280;60660;52.076;5.110;2023-03-04T04:14:13;102703.15;;;-1.60;49.50
72330;BME280;60660;52.076;5.110;2023-03-04T04:16:39;102706.79;;;-2.81;52.65
72330;BME280;60660;52.076;5.110;2023-03-04T04:19:05;102704.64;;;-3.41;52.10
72330;BME280;60660;52.076;5.110;2023-03-04T04:21:30;102702.43;;;-1.61;49.65
72330;BME280;60660;52.076;5.110;2023-03-04T04:23:56;102706.98;;;-3.02;52.16
72330;BME280;60660;52.076;5.110;2023-03-04T04:26:21;102706.68;;;-1.76;49.02
72330;BME280;60660;52.076;5.110;2023-03-04T04:28:47;102707.63;;;-1.10;47.53
72330;BME280;60660;52.076;5.110;2023-03-04T04:31:12;102711.93;;;-0.39;45.44
72330;BME280;60660;52.076;5.110;2023-03-04T04:33:38;102706.50;;;-1.17;46.46
72330;BME280;60660;52.076;5.110;2023-03-04T04:36:04;102708.00;;;-1.02;47.03
72330;BME280;60660;52.076;5.110;2023-03-04T04:38:29;102704.96;;;-0.16;44.31
72330;BME280;60660;52.076;5.110;2023-03-04T04:40:56;102707.85;;;2.04;41.27
72330;BME280;60660;52.076;5.110;2023-03-04T04:43:20;102706.67;;;-3.33;50.15
72330;BME280;60660;52.076;5.110;2023-03-04T04:45:46;102710.96;;;-2.00;48.37
72330;BME280;60660;52.076;5.110;2023-03-04T04:48:11;102711.90;;;0.05;46.39
72330;BME280;60660;52.076;5.110;2023-03-04T04:50:37;102709.84;;;0.74;43.77
72330;BME280;60660;52.076;5.110;2023-03-04T04:53:02;102714.07;;;-0.99;48.03
72330;BME280;60660;52.076;5.110;2023-03-04T04:55:29;102703.63;;;-2.28;53.23
72330;BME280;60660;52.076;5.110;2023-03-04T04:57:54;102702.47;;;-2.95;52.70
72330;BME280;60660;52.076;5.110;2023-03-04T05:00:20;102702.76;;;-1.40;47.52
72330;BME280;60660;52.076;5.110;2023-03-04T05:02:45;102704.35;;;-2.02;49.02
72330;BME280;60660;52.076;5.110;2023-03-04T05:05:11;102704.92;;;-1.89;49.53
72330;BME280;60660;52.076;5.110;2023-03-04T05:07:36;102701.21;;;1.08;44.21
72330;BME280;60660;52.076;5.110;2023-03-04T05:10:02;102706.41;;;-1.10;46.93
72330;BME280;60660;52.076;5.110;2023-03-04T05:12:27;102702.35;;;-1.80;49.90
72330;BME280;60660;52.076;5.110;2023-03-04T05:14:52;102705.46;;;-0.64;46.94
72330;BME280;60660;52.076;5.110;2023-03-04T05:17:18;102708.00;;;-0.41;45.33
72330;BME280;60660;52.076;5.110;2023-03-04T05:19:43;102705.26;;;0.03;43.78
72330;BME280;60660;52.076;5.110;2023-03-04T05:22:09;102706.89;;;-1.56;46.61
72330;BME280;60660;52.076;5.110;2023-03-04T05:24:34;102701.59;;;-2.40;49.93
72330;BME280;60660;52.076;5.110;2023-03-04T05:27:00;102709.03;;;-1.49;47.22
72330;BME280;60660;52.076;5.110;2023-03-04T05:29:25;102709.41;;;-1.00;46.45
72330;BME280;60660;52.076;5.110;2023-03-04T05:31:51;102711.84;;;-0.73;45.79
72330;BME280;60660;52.076;5.110;2023-03-04T05:34:17;102712.57;;;-0.41;44.96
72330;BME280;60660;52.076;5.110;2023-03-04T05:36:42;102710.56;;;1.50;41.81
72330;BME280;60660;52.076;5.110;2023-03-04T05:39:08;102710.76;;;1.76;40.30
72330;BME280;60660;52.076;5.110;2023-03-04T05:41:34;102713.88;;;0.67;41.64
72330;BME280;60660;52.076;5.110;2023-03-04T05:43:59;102717.97;;;-1.18;45.31
72330;BME280;60660;52.076;5.110;2023-03-04T05:46:24;102717.76;;;-3.62;52.55
72330;BME280;60660;52.076;5.110;2023-03-04T05:48:50;102715.40;;;-2.74;53.73
72330;BME280;60660;52.076;5.110;2023-03-04T05:51:15;102717.19;;;-3.24;60.52
72330;BME280;60660;52.076;5.110;2023-03-04T05:53:41;102715.30;;;-2.96;58.65
72330;BME280;60660;52.076;5.110;2023-03-04T05:56:07;102718.07;;;-2.70;60.89
72330;BME280;60660;52.076;5.110;2023-03-04T05:58:32;102716.31;;;-3.02;62.48
72330;BME280;60660;52.076;5.110;2023-03-04T06:00:59;102713.20;;;-3.77;63.60
72330;BME280;60660;52.076;5.110;2023-03-04T06:03:24;102714.61;;;-4.99;72.67
72330;BME280;60660;52.076;5.110;2023-03-04T06:05:49;102711.59;;;-3.42;66.96
72330;BME280;60660;52.076;5.110;2023-03-04T06:08:14;102716.46;;;-2.96;63.73
72330;BME280;60660;52.076;5.110;2023-03-04T06:10:41;102710.39;;;-4.67;66.42
72330;BME280;60660;52.076;5.110;2023-03-04T06:13:06;102717.64;;;-3.21;64.08
72330;BME280;60660;52.076;5.110;2023-03-04T06:15:32;102714.53;;;-1.47;60.49
72330;BME280;60660;52.076;5.110;2023-03-04T06:17:57;102711.51;;;-1.60;58.87
72330;BME280;60660;52.076;5.110;2023-03-04T06:20:22;102711.52;;;-1.55;57.68
72330;BME280;60660;52.076;5.110;2023-03-04T06:22:47;102710.09;;;-0.77;52.78
72330;BME280;60660;52.076;5.110;2023-03-04T06:25:14;102707.93;;;-0.01;52.05
72330;BME280;60660;52.076;5.110;2023-03-04T06:27:39;102709.62;;;0.54;49.16
72330;BME280;60660;52.076;5.110;2023-03-04T06:30:06;102710.65;;;1.33;47.21
72330;BME280;60660;52.076;5.110;2023-03-04T06:32:30;102711.35;;;1.04;46.96
72330;BME280;60660;52.076;5.110;2023-03-04T06:34:55;102713.58;;;1.51;44.67
72330;BME280;60660;52.076;5.110;2023-03-04T06:37:21;102716.46;;;2.51;42.16
72330;BME280;60660;52.076;5.110;2023-03-04T06:39:46;102717.12;;;0.54;45.03
72330;BME280;60660;52.076;5.110;2023-03-04T06:42:12;102714.98;;;1.78;43.30
72330;BME280;60660;52.076;5.110;2023-03-04T06:44:38;102717.69;;;-1.38;47.30
72330;BME280;60660;52.076;5.110;2023-03-04T06:47:03;102718.05;;;-1.58;51.85
72330;BME280;60660;52.076;5.110;2023-03-04T06:49:28;102713.67;;;-0.05;48.32
72330;BME280;60660;52.076;5.110;2023-03-04T06:51:53;102715.46;;;-1.12;50.84
72330;BME280;60660;52.076;5.110;2023-03-04T06:54:19;102716.77;;;-1.93;53.85
72330;BME280;60660;52.076;5.110;2023-03-04T06:56:44;102714.41;;;-2.59;54.05
72330;BME280;60660;52.076;5.110;2023-03-04T06:59:10;102719.22;;;-1.35;51.83
72330;BME280;60660;52.076;5.110;2023-03-04T07:01:36;102722.48;;;-0.68;51.07
72330;BME280;60660;52.076;5.110;2023-03-04T07:04:01;102727.64;;;-1.83;52.94
72330;BME280;60660;52.076;5.110;2023-03-04T07:06:29;102725.03;;;0.92;47.57
72330;BME280;60660;52.076;5.110;2023-03-04T07:08:52;102731.02;;;-0.83;50.77
72330;BME280;60660;52.076;5.110;2023-03-04T07:11:18;102731.50;;;-1.48;53.51
72330;BME280;60660;52.076;5.110;2023-03-04T07:13:43;102731.89;;;-3.00;58.21
72330;BME280;60660;52.076;5.110;2023-03-04T07:16:10;102732.05;;;-3.09;60.09
72330;BME280;60660;52.076;5.110;2023-03-04T07:18:34;102735.55;;;-3.24;61.56
72330;BME280;60660;52.076;5.110;2023-03-04T07:21:00;102734.77;;;-2.56;60.03
72330;BME280;60660;52.076;5.110;2023-03-04T07:23:25;102735.80;;;-2.62;63.54
72330;BME280;60660;52.076;5.110;2023-03-04T07:25:51;102731.29;;;-2.57;61.98
72330;BME280;60660;52.076;5.110;2023-03-04T07:28:16;102735.67;;;-3.16;63.91
72330;BME280;60660;52.076;5.110;2023-03-04T07:30:42;102733.70;;;-3.74;69.44
72330;BME280;60660;52.076;5.110;2023-03-04T07:33:07;102735.48;;;-4.14;70.38
72330;BME280;60660;52.076;5.110;2023-03-04T07:35:33;102735.30;;;-2.37;64.92
72330;BME280;60660;52.076;5.110;2023-03-04T07:37:58;102739.96;;;-0.01;55.73
72330;BME280;60660;52.076;5.110;2023-03-04T07:40:24;102741.83;;;-1.73;59.80
72330;BME280;60660;52.076;5.110;2023-03-04T07:42:49;102747.10;;;-1.25;57.40
72330;BME280;60660;52.076;5.110;2023-03-04T07:45:15;102747.83;;;-2.84;63.48
72330;BME280;60660;52.076;5.110;2023-03-04T07:47:41;102743.78;;;-2.12;63.13
72330;BME280;60660;52.076;5.110;2023-03-04T07:50:07;102749.30;;;-1.13;56.46
72330;BME280;60660;52.076;5.110;2023-03-04T07:52:32;102744.32;;;2.02;49.62
72330;BME280;60660;52.076;5.110;2023-03-04T07:54:57;102742.48;;;-0.39;50.02
72330;BME280;60660;52.076;5.110;2023-03-04T07:57:23;102743.25;;;0.15;50.45
72330;BME280;60660;52.076;5.110;2023-03-04T07:59:48;102751.79;;;-2.03;55.38
72330;BME280;60660;52.076;5.110;2023-03-04T08:02:14;102750.51;;;-0.48;54.68
72330;BME280;60660;52.076;5.110;2023-03-04T08:04:41;102753.39;;;-1.01;52.53
72330;BME280;60660;52.076;5.110;2023-03-04T08:07:04;102751.61;;;-2.15;57.61
72330;BME280;60660;52.076;5.110;2023-03-04T08:09:30;102754.08;;;-2.63;64.62
72330;BME280;60660;52.076;5.110;2023-03-04T08:11:55;102759.23;;;-3.03;62.82
72330;BME280;60660;52.076;5.110;2023-03-04T08:14:21;102761.44;;;-2.15;60.84
72330;BME280;60660;52.076;5.110;2023-03-04T08:16:46;102766.04;;;-0.73;54.69
72330;BME280;60660;52.076;5.110;2023-03-04T08:19:12;102764.88;;;-2.61;59.55
72330;BME280;60660;52.076;5.110;2023-03-04T08:21:38;102768.88;;;-0.35;57.12
72330;BME280;60660;52.076;5.110;2023-03-04T08:24:04;102764.67;;;-1.96;57.54
72330;BME280;60660;52.076;5.110;2023-03-04T08:26:30;102765.93;;;-2.72;59.23
72330;BME280;60660;52.076;5.110;2023-03-04T08:29:01;102767.56;;;-2.47;60.76
72330;BME280;60660;52.076;5.110;2023-03-04T08:31:20;102766.38;;;-1.33;57.40
72330;BME280;60660;52.076;5.110;2023-03-04T08:33:46;102768.09;;;-0.72;54.43
72330;BME280;60660;52.076;5.110;2023-03-04T08:36:11;102766.53;;;-1.62;56.71
72330;BME280;60660;52.076;5.110;2023-03-04T08:38:36;102772.02;;;-0.77;55.64
72330;BME280;60660;52.076;5.110;2023-03-04T08:41:01;102774.50;;;-0.41;52.96
72330;BME280;60660;52.076;5.110;2023-03-04T08:43:27;102772.97;;;-0.45;52.89
72330;BME280;60660;52.076;5.110;2023-03-04T08:45:53;102769.83;;;-0.12;51.44
72330;BME280;60660;52.076;5.110;2023-03-04T08:48:18;102770.26;;;-1.17;56.29
72330;BME280;60660;52.076;5.110;2023-03-04T08:50:43;102767.72;;;-1.10;55.84
72330;BME280;60660;52.076;5.110;2023-03-04T08:53:08;102766.13;;;-2.91;62.39
72330;BME280;60660;52.076;5.110;2023-03-04T08:55:34;102763.15;;;-1.23;60.44
72330;BME280;60660;52.076;5.110;2023-03-04T08:57:59;102761.18;;;-2.55;62.75
72330;BME280;60660;52.076;5.110;2023-03-04T09:00:26;102759.50;;;-0.80;58.41
72330;BME280;60660;52.076;5.110;2023-03-04T09:02:50;102761.35;;;-0.86;55.88
72330;BME280;60660;52.076;5.110;2023-03-04T09:05:16;102760.66;;;-0.84;56.98
72330;BME280;60660;52.076;5.110;2023-03-04T09:07:42;102750.64;;;-1.55;60.65
72330;BME280;60660;52.076;5.110;2023-03-04T09:10:09;102756.24;;;-1.25;59.50
72330;BME280;60660;52.076;5.110;2023-03-04T09:12:33;102758.70;;;-0.36;56.05
72330;BME280;60660;52.076;5.110;2023-03-04T09:14:58;102749.49;;;-0.77;59.06
72330;BME280;60660;52.076;5.110;2023-03-04T09:17:25;102749.92;;;-2.43;62.87
72330;BME280;60660;52.076;5.110;2023-03-04T09:19:49;102753.05;;;-2.48;67.46
72330;BME280;60660;52.076;5.110;2023-03-04T09:22:14;102753.04;;;-1.95;69.96
72330;BME280;60660;52.076;5.110;2023-03-04T09:24:39;102754.16;;;-1.94;69.59
72330;BME280;60660;52.076;5.110;2023-03-04T09:27:05;102750.84;;;-0.88;63.21
72330;BME280;60660;52.076;5.110;2023-03-04T09:29:30;102752.79;;;-1.04;62.72
72330;BME280;60660;52.076;5.110;2023-03-04T09:31:56;102754.64;;;-0.44;60.21
72330;BME280;60660;52.076;5.110;2023-03-04T09:34:21;102752.75;;;-1.26;63.51
72330;BME280;60660;52.076;5.110;2023-03-04T09:36:47;102746.89;;;-2.25;65.52
72330;BME280;60660;52.076;5.110;2023-03-04T09:39:13;102747.32;;;-2.24;68.70
72330;BME280;60660;52.076;5.110;2023-03-04T09:41:42;102748.15;;;-1.14;65.31
72330;BME280;60660;52.076;5.110;2023-03-04T09:44:09;102750.12;;;-0.10;60.85
72330;BME280;60660;52.076;5.110;2023-03-04T09:46:33;102746.54;;;-0.67;64.65
72330;BME280;60660;52.076;5.110;2023-03-04T09:48:55;102744.46;;;-1.22;63.63
72330;BME280;60660;52.076;5.110;2023-03-04T09:51:22;102746.83;;;-0.32;64.08
72330;BME280;60660;52.076;5.110;2023-03-04T09:53:52;102741.56;;;-3.10;73.09
72330;BME280;60660;52.076;5.110;2023-03-04T09:56:10;102739.39;;;-1.19;72.07
72330;BME280;60660;52.076;5.110;2023-03-04T09:58:44;102744.90;;;-3.28;84.23
72330;BME280;60660;52.076;5.110;2023-03-04T10:01:06;102742.52;;;-3.26;86.30
72330;BME280;60660;52.076;5.110;2023-03-04T10:03:37;102742.08;;;-2.34;79.79
72330;BME280;60660;52.076;5.110;2023-03-04T10:05:54;102741.63;;;-1.46;71.43
72330;BME280;60660;52.076;5.110;2023-03-04T10:08:39;102735.38;;;-2.44;72.79
72330;BME280;60660;52.076;5.110;2023-03-04T10:10:44;102734.99;;;-2.60;75.33
72330;BME280;60660;52.076;5.110;2023-03-04T10:13:14;102735.49;;;-1.36;72.33
72330;BME280;60660;52.076;5.110;2023-03-04T10:15:37;102732.69;;;-1.28;71.10
72330;BME280;60660;52.076;5.110;2023-03-04T10:18:12;102734.23;;;-0.96;66.24
72330;BME280;60660;52.076;5.110;2023-03-04T10:20:30;102725.17;;;3.18;51.89
72330;BME280;60660;52.076;5.110;2023-03-04T10:22:52;102728.85;;;0.70;54.65
72330;BME280;60660;52.076;5.110;2023-03-04T10:25:20;102727.53;;;-0.36;62.98
72330;BME280;60660;52.076;5.110;2023-03-04T10:27:42;102722.18;;;-2.26;67.03
72330;BME280;60660;52.076;5.110;2023-03-04T10:30:14;102725.22;;;0.55;62.01
72330;BME280;60660;52.076;5.110;2023-03-04T10:32:32;102723.24;;;0.43;59.05
72330;BME280;60660;52.076;5.110;2023-03-04T10:34:57;102720.98;;;0.03;59.11
72330;BME280;60660;52.076;5.110;2023-03-04T10:37:23;102722.33;;;-0.89;64.56
72330;BME280;60660;52.076;5.110;2023-03-04T10:39:49;102718.41;;;-0.64;60.58
72330;BME280;60660;52.076;5.110;2023-03-04T10:42:29;102717.04;;;1.48;56.40
72330;BME280;60660;52.076;5.110;2023-03-04T10:44:44;102715.56;;;2.95;49.57
72330;BME280;60660;52.076;5.110;2023-03-04T10:47:08;102713.42;;;2.67;46.58
72330;BME280;60660;52.076;5.110;2023-03-04T10:49:30;102711.83;;;-0.26;55.25
72330;BME280;60660;52.076;5.110;2023-03-04T10:52:01;102723.39;;;-1.44;69.06
72330;BME280;60660;52.076;5.110;2023-03-04T10:54:25;102723.25;;;-1.51;72.27
72330;BME280;60660;52.076;5.110;2023-03-04T10:56:54;102724.42;;;-2.67;78.78
72330;BME280;60660;52.076;5.110;2023-03-04T10:59:46;102725.86;;;-1.09;72.55
72330;BME280;60660;52.076;5.110;2023-03-04T11:01:37;102725.38;;;-1.11;74.54
72330;BME280;60660;52.076;5.110;2023-03-04T11:04:08;102726.73;;;0.41;69.10
72330;BME280;60660;52.076;5.110;2023-03-04T11:06:28;102714.22;;;0.70;69.33
72330;BME280;60660;52.076;5.110;2023-03-04T11:08:55;102711.38;;;-0.16;65.14
72330;BME280;60660;52.076;5.110;2023-03-04T11:11:26;102707.31;;;0.15;63.48
72330;BME280;60660;52.076;5.110;2023-03-04T11:13:50;102705.47;;;1.13;61.23
72330;BME280;60660;52.076;5.110;2023-03-04T11:16:24;102703.39;;;1.73;58.71
72330;BME280;60660;52.076;5.110;2023-03-04T11:18:40;102701.26;;;2.22;55.62
72330;BME280;60660;52.076;5.110;2023-03-04T11:21:01;102694.63;;;0.39;60.47
72330;BME280;60660;52.076;5.110;2023-03-04T11:23:32;102691.77;;;1.15;56.53
72330;BME280;60660;52.076;5.110;2023-03-04T11:25:55;102686.13;;;-0.18;57.41
72330;BME280;60660;52.076;5.110;2023-03-04T11:28:21;102686.36;;;-0.24;61.38
72330;BME280;60660;52.076;5.110;2023-03-04T11:30:44;102681.63;;;1.96;54.58
72330;BME280;60660;52.076;5.110;2023-03-04T11:33:15;102686.16;;;0.91;53.54
72330;BME280;60660;52.076;5.110;2023-03-04T11:35:40;102688.70;;;1.53;54.80
72330;BME280;60660;52.076;5.110;2023-03-04T11:38:04;102688.11;;;-0.53;60.68
72330;BME280;60660;52.076;5.110;2023-03-04T11:40:31;102700.28;;;-1.27;73.66
72330;BME280;60660;52.076;5.110;2023-03-04T11:44:29;102704.30;;;-3.59;91.65
72330;BME280;60660;52.076;5.110;2023-03-04T11:47:00;102699.48;;;-3.13;92.62
72330;BME280;60660;52.076;5.110;2023-03-04T11:49:42;102700.52;;;-1.86;87.36
72330;BME280;60660;52.076;5.110;2023-03-04T11:51:48;102695.04;;;-1.48;81.02
72330;BME280;60660;52.076;5.110;2023-03-04T11:54:16;102697.00;;;-1.51;84.67
72330;BME280;60660;52.076;5.110;2023-03-04T11:56:38;102688.90;;;-1.52;83.15
72330;BME280;60660;52.076;5.110;2023-03-04T11:59:13;102687.24;;;-0.52;78.01
72330;BME280;60660;52.076;5.110;2023-03-04T12:01:36;102683.18;;;0.55;73.30
72330;BME280;60660;52.076;5.110;2023-03-04T12:04:03;102679.94;;;-0.13;73.60
72330;BME280;60660;52.076;5.110;2023-03-04T12:06:29;102670.94;;;0.66;70.77
72330;BME280;60660;52.076;5.110;2023-03-04T12:08:53;102668.11;;;0.34;72.90
72330;BME280;60660;52.076;5.110;2023-03-04T12:11:12;102663.70;;;-0.34;70.66
72330;BME280;60660;52.076;5.110;2023-03-04T12:13:45;102664.54;;;-0.10;69.26
72330;BME280;60660;52.076;5.110;2023-03-04T12:16:07;102666.14;;;-0.41;77.96
72330;BME280;60660;52.076;5.110;2023-03-04T12:18:38;102663.76;;;-1.93;82.83
72330;BME280;60660;52.076;5.110;2023-03-04T12:20:57;102668.80;;;-0.70;79.77
72330;BME280;60660;52.076;5.110;2023-03-04T12:23:26;102664.51;;;-2.84;84.50
72330;BME280;60660;52.076;5.110;2023-03-04T12:25:47;102669.32;;;-2.12;97.59
72330;BME280;60660;52.076;5.110;2023-03-04T12:28:18;102671.56;;;-0.97;90.32
72330;BME280;60660;52.076;5.110;2023-03-04T12:30:38;102673.12;;;-2.75;98.03
72330;BME280;60660;52.076;5.110;2023-03-04T12:33:02;102667.34;;;-1.60;90.71
72330;BME280;60660;52.076;5.110;2023-03-04T12:35:35;102675.06;;;-1.95;96.26
72330;BME280;60660;52.076;5.110;2023-03-04T12:37:56;102668.42;;;-1.54;90.43
72330;BME280;60660;52.076;5.110;2023-03-04T12:40:27;102663.60;;;-1.74;90.41
72330;BME280;60660;52.076;5.110;2023-03-04T12:42:55;102660.48;;;-2.17;91.95
72330;BME280;60660;52.076;5.110;2023-03-04T12:45:15;102657.88;;;-2.66;87.64